Time;durP1;ratioP1;P1;durP2;ratioP2;P2;SDS_P1;SDS_P2;PMS_P1;PMS_P2;Temp;Humidity;BMP_temperature;BMP_pressure;BME280_temperature;BME280_humidity;BME280_pressure;Samples;Min_cycle;Max_cycle;Signal;HPM_P1;HPM_P2
2024/02/17 00:00:07;;;;;;;4.27;2.43;;;;;;;-0.50;100.00;101010.28;5052137;28;20381;-71
2024/02/17 00:02:33;;;;;;;10.40;4.90;;;;;;;-0.68;100.00;100985.97;5051879;28;20040;-68
2024/02/17 00:05:09;;;;;;;3.47;2.80;;;;;;;-0.42;100.00;101004.59;5052586;28;20386;-64
2024/02/17 00:07:35;;;;;;;3.07;2.77;;;;;;;-0.42;100.00;100997.59;5036016;28;20043;-70
2024/02/17 00:10:03;;;;;;;7.27;3.17;;;;;;;-0.45;100.00;100974.22;5053769;28;20268;-71
2024/02/17 00:12:29;;;;;;;3.80;2.80;;;;;;;-0.32;100.00;100988.28;5053480;28;20086;-69
2024/02/17 00:14:54;;;;;;;3.83;2.83;;;;;;;-0.43;100.00;100956.66;5053120;28;20271;-69
2024/02/17 00:17:19;;;;;;;3.37;2.70;;;;;;;-0.53;100.00;100931.13;5052997;28;20036;-68
2024/02/17 00:19:46;;;;;;;4.47;3.03;;;;;;;-0.22;100.00;100959.00;5056175;28;20401;-71
2024/02/17 00:22:16;;;;;;;5.57;3.13;;;;;;;-0.23;100.00;100942.44;5055389;28;20144;-71
2024/02/17 00:24:43;;;;;;;4.40;3.00;;;;;;;-0.23;100.00;100936.38;5054457;28;20318;-69
2024/02/17 00:27:10;;;;;;;3.43;3.13;;;;;;;-0.13;100.00;100956.66;5053893;28;20283;-69
2024/02/17 00:29:36;;;;;;;3.43;3.13;;;;;;;-0.14;100.00;100954.16;5052605;28;20286;-69
2024/02/17 00:32:01;;;;;;;3.47;3.13;;;;;;;-0.14;100.00;100962.00;5051426;28;20275;-69
2024/02/17 00:34:27;;;;;;;3.47;3.07;;;;;;;-0.13;100.00;100945.34;5051315;28;20541;-69
2024/02/17 00:36:52;;;;;;;4.40;3.20;;;;;;;-0.06;100.00;100939.66;5052480;28;20068;-67
2024/02/17 00:39:18;;;;;;;3.37;3.07;;;;;;;-0.06;100.00;100928.34;5052329;28;20120;-69
2024/02/17 00:41:44;;;;;;;4.90;3.37;;;;;;;-0.06;100.00;100915.25;5052585;28;20488;-68
2024/02/17 00:44:09;;;;;;;3.57;3.00;;;;;;;-0.45;100.00;100864.34;5051037;28;20511;-71
2024/02/17 00:46:35;;;;;;;4.13;3.20;;;;;;;-0.13;100.00;100920.03;5051425;28;20781;-72
2024/02/17 00:49:01;;;;;;;3.40;2.90;;;;;;;-0.10;100.00;100926.84;5050993;28;20127;-68
2024/02/17 00:51:27;;;;;;;4.73;3.20;;;;;;;0.01;100.00;100950.63;5052222;28;20045;-70
2024/02/17 00:53:52;;;;;;;5.33;3.70;;;;;;;0.06;100.00;100932.88;5052328;28;20040;-70
2024/02/17 00:56:21;;;;;;;4.43;3.53;;;;;;;-0.28;100.00;100878.22;5052185;28;20116;-68
2024/02/17 00:58:46;;;;;;;7.50;4.20;;;;;;;0.12;100.00;100940.34;5051075;28;20037;-68
2024/02/17 01:01:12;;;;;;;4.13;3.30;;;;;;;-0.20;100.00;100868.13;5051973;28;20380;-69
2024/02/17 01:03:37;;;;;;;6.50;4.10;;;;;;;0.07;100.00;100918.00;5051768;28;20041;-70
2024/02/17 01:06:03;;;;;;;4.70;3.43;;;;;;;0.14;100.00;100925.41;5052141;28;20044;-69
2024/02/17 01:08:29;;;;;;;6.10;3.93;;;;;;;0.10;100.00;100923.06;5050835;28;20068;-70
2024/02/17 01:10:54;;;;;;;5.00;3.97;;;;;;;0.15;100.00;100921.84;5050593;28;20119;-68
2024/02/17 01:13:20;;;;;;;4.33;3.73;;;;;;;0.12;100.00;100895.84;5051713;28;20818;-69
2024/02/17 01:15:45;;;;;;;5.97;4.13;;;;;;;0.07;100.00;100890.03;5051683;28;20085;-68
2024/02/17 01:18:11;;;;;;;6.37;3.87;;;;;;;0.09;100.00;100896.03;5051799;28;20677;-72
2024/02/17 01:20:36;;;;;;;4.20;3.43;;;;;;;0.06;100.00;100864.78;5051787;28;20134;-69
2024/02/17 01:23:02;;;;;;;4.37;3.67;;;;;;;0.10;100.00;100855.81;5051879;28;20420;-70
2024/02/17 01:25:29;;;;;;;6.83;4.60;;;;;;;-0.08;100.00;100821.09;5051683;28;20048;-71
2024/02/17 01:27:54;;;;;;;7.37;4.43;;;;;;;0.06;100.00;100836.00;5050485;28;20043;-70
2024/02/17 01:30:20;;;;;;;4.50;3.83;;;;;;;0.28;100.00;100872.16;5052534;28;20282;-70
2024/02/17 01:32:45;;;;;;;6.70;4.67;;;;;;;0.28;100.00;100870.38;5052075;28;20041;-69
2024/02/17 01:35:12;;;;;;;6.37;4.87;;;;;;;0.29;100.00;100866.00;5051905;28;20389;-71
2024/02/17 01:37:39;;;;;;;5.07;4.50;;;;;;;0.29;100.00;100861.63;5051639;28;20033;-69
2024/02/17 01:40:05;;;;;;;5.03;4.30;;;;;;;0.05;100.00;100831.69;5051355;28;20881;-69
2024/02/17 01:42:30;;;;;;;6.87;5.30;;;;;;;0.20;100.00;100828.13;5049329;28;20263;-72
2024/02/17 01:44:56;;;;;;;6.10;5.50;;;;;;;0.18;100.00;100821.28;5051469;28;20904;-70
2024/02/17 01:47:22;;;;;;;6.87;4.93;;;;;;;0.30;100.00;100837.09;5051934;28;20036;-71
2024/02/17 01:49:47;;;;;;;6.83;5.47;;;;;;;0.25;100.00;100823.44;5050526;28;20495;-69
2024/02/17 01:52:15;;;;;;;5.97;5.10;;;;;;;0.25;100.00;100817.34;5051457;28;20268;-69
2024/02/17 01:54:43;;;;;;;8.40;6.07;;;;;;;-0.02;100.00;100763.13;5051113;28;20392;-70
2024/02/17 01:57:09;;;;;;;7.53;5.73;;;;;;;0.17;100.00;100775.94;5050034;28;20283;-69
2024/02/17 01:59:35;;;;;;;9.80;7.17;;;;;;;0.23;100.00;100785.16;5051338;28;20276;-69
2024/02/17 02:02:01;;;;;;;7.53;6.13;;;;;;;0.26;100.00;100780.56;5051441;28;20263;-69
2024/02/17 02:04:27;;;;;;;7.23;6.00;;;;;;;0.16;100.00;100769.00;5050936;28;20279;-68
2024/02/17 02:06:52;;;;;;;8.90;7.03;;;;;;;0.35;100.00;100788.81;5050966;28;20044;-69
2024/02/17 02:09:23;;;;;;;10.00;7.00;;;;;;;0.35;100.00;100778.34;5050874;28;20036;-70
2024/02/17 02:11:50;;;;;;;8.00;6.40;;;;;;;0.27;100.00;100768.31;5051354;28;20047;-72
2024/02/17 02:14:17;;;;;;;8.37;7.27;;;;;;;0.20;100.00;100748.69;5051561;28;20670;-74
2024/02/17 02:16:43;;;;;;;7.57;6.30;;;;;;;0.10;100.00;100729.28;5051757;28;20267;-69
2024/02/17 02:19:09;;;;;;;8.97;7.27;;;;;;;0.13;100.00;100740.41;5050931;28;20263;-69
2024/02/17 02:21:36;;;;;;;7.83;6.43;;;;;;;0.14;100.00;100726.38;5051111;28;20037;-69
2024/02/17 02:24:02;;;;;;;8.67;6.77;;;;;;;0.07;100.00;100704.13;5049905;28;20263;-70
2024/02/17 02:26:29;;;;;;;9.07;6.87;;;;;;;0.34;100.00;100732.13;5049615;28;20310;-69
2024/02/17 02:28:55;;;;;;;8.73;7.30;;;;;;;0.23;100.00;100715.28;5050897;28;20310;-70
2024/02/17 02:31:20;;;;;;;11.73;8.07;;;;;;;0.26;100.00;100722.94;5051062;28;20268;-72
2024/02/17 02:33:47;;;;;;;12.07;8.03;;;;;;;0.34;100.00;100713.78;5051015;28;20033;-69
2024/02/17 02:36:13;;;;;;;14.30;8.93;;;;;;;0.24;100.00;100690.78;5050839;28;20647;-70
2024/02/17 02:38:39;;;;;;;14.07;8.70;;;;;;;0.40;100.00;100706.38;5050938;28;20267;-70
2024/02/17 02:41:05;;;;;;;12.70;9.27;;;;;;;0.32;100.00;100681.63;5050996;28;20278;-69
2024/02/17 02:43:30;;;;;;;13.17;9.60;;;;;;;0.29;100.00;100677.41;5050902;28;20041;-69
2024/02/17 02:45:56;;;;;;;12.23;8.70;;;;;;;0.40;100.00;100688.03;5051055;28;20547;-69
2024/02/17 02:48:21;;;;;;;12.43;9.30;;;;;;;0.43;100.00;100676.50;5051029;28;20047;-70
2024/02/17 02:50:47;;;;;;;14.03;9.97;;;;;;;0.50;100.00;100680.41;5051124;28;20152;-67
2024/02/17 02:53:12;;;;;;;14.37;9.57;;;;;;;0.44;100.00;100665.94;5052518;28;20457;-68
2024/02/17 02:55:37;;;;;;;14.53;10.03;;;;;;;0.13;100.00;100609.47;5054598;28;20047;-67
2024/02/17 02:58:03;;;;;;;15.27;9.40;;;;;;;0.51;100.00;100650.63;5055220;28;20037;-71
2024/02/17 03:00:28;;;;;;;12.83;10.07;;;;;;;0.44;100.00;100628.41;5055032;28;20481;-70
2024/02/17 03:02:55;;;;;;;16.03;11.13;;;;;;;0.42;100.00;100619.81;5054965;28;20090;-68
2024/02/17 03:05:21;;;;;;;13.90;10.90;;;;;;;0.61;100.00;100630.75;5055144;28;20040;-70
2024/02/17 03:07:46;;;;;;;14.97;10.73;;;;;;;0.52;100.00;100616.47;5054767;28;20295;-69
2024/02/17 03:10:12;;;;;;;14.37;10.33;;;;;;;0.59;100.00;100628.25;5052993;28;20037;-69
2024/02/17 03:12:37;;;;;;;15.63;10.77;;;;;;;0.57;100.00;100613.53;5054232;28;20119;-70
2024/02/17 03:15:03;;;;;;;15.20;9.97;;;;;;;0.52;100.00;100586.81;5054390;28;20358;-69
2024/02/17 03:17:29;;;;;;;16.57;10.40;;;;;;;0.59;100.00;100591.56;5054224;28;20044;-70
2024/02/17 03:19:55;;;;;;;14.37;9.73;;;;;;;0.43;100.00;100563.84;5054167;28;20274;-69
2024/02/17 03:22:20;;;;;;;13.07;10.17;;;;;;;0.57;100.00;100587.34;5053046;28;20276;-69
2024/02/17 03:24:49;;;;;;;18.10;11.10;;;;;;;0.56;100.00;100602.22;5052501;28;20060;-69
2024/02/17 03:27:15;;;;;;;14.05;10.00;;;;;;;0.58;100.00;100592.50;5054019;28;20092;-68
2024/02/17 03:29:40;;;;;;;17.67;10.43;;;;;;;0.62;100.00;100598.38;5053980;28;20076;-68
2024/02/17 03:32:06;;;;;;;14.63;11.30;;;;;;;0.60;100.00;100592.41;5053924;28;20032;-69
2024/02/17 03:34:32;;;;;;;14.67;11.00;;;;;;;0.48;100.00;100559.13;5053975;28;20041;-69
2024/02/17 03:36:58;;;;;;;16.20;10.90;;;;;;;0.64;100.00;100591.25;5052621;28;20317;-69
2024/02/17 03:39:23;;;;;;;17.13;11.80;;;;;;;0.55;100.00;100568.25;5052211;28;20128;-70
2024/02/17 03:41:49;;;;;;;16.67;12.73;;;;;;;0.44;100.00;100521.00;5053512;28;20033;-70
2024/02/17 03:44:16;;;;;;;17.20;13.43;;;;;;;0.59;100.00;100538.31;5053557;28;20033;-68
2024/02/17 03:46:41;;;;;;;18.00;11.73;;;;;;;-0.31;100.00;100389.88;5052366;28;20275;-70
2024/02/17 03:49:07;;;;;;;15.90;12.57;;;;;;;0.61;100.00;100536.41;5053642;28;20299;-69
2024/02/17 03:51:33;;;;;;;15.73;11.07;;;;;;;0.58;100.00;100513.03;5052609;28;20056;-68
2024/02/17 03:53:58;;;;;;;18.17;11.77;;;;;;;0.60;100.00;100511.16;5052212;28;20029;-69
2024/02/17 03:56:24;;;;;;;18.77;11.90;;;;;;;0.63;100.00;100513.56;5053607;28;20516;-69
2024/02/17 03:58:50;;;;;;;15.93;11.83;;;;;;;0.73;100.00;100532.09;5053510;28;20421;-70
2024/02/17 04:01:16;;;;;;;16.10;11.90;;;;;;;0.68;100.00;100521.94;5053329;28;20370;-70
2024/02/17 04:03:41;;;;;;;18.77;13.13;;;;;;;0.63;100.00;100518.81;5051798;28;20354;-70
2024/02/17 04:06:08;;;;;;;16.77;12.23;;;;;;;0.61;100.00;100502.34;5052019;28;20496;-68
2024/02/17 04:08:33;;;;;;;19.23;13.57;;;;;;;0.48;100.00;100473.50;5053066;28;20072;-70
2024/02/17 04:11:00;;;;;;;18.60;13.63;;;;;;;0.47;100.00;100465.75;5052050;28;20350;-68
2024/02/17 04:13:27;;;;;;;19.83;12.40;;;;;;;0.52;100.00;100474.13;5054127;28;20271;-68
2024/02/17 04:15:52;;;;;;;19.70;13.70;;;;;;;0.69;100.00;100492.16;5053498;28;20294;-69
2024/02/17 04:18:18;;;;;;;20.00;13.77;;;;;;;0.59;100.00;100464.94;5053230;28;20739;-69
2024/02/17 04:20:44;;;;;;;21.63;14.03;;;;;;;0.72;100.00;100481.47;5051900;28;20037;-69
2024/02/17 04:23:09;;;;;;;18.40;13.67;;;;;;;0.70;100.00;100459.78;5053291;28;20554;-70
2024/02/17 04:25:37;;;;;;;22.63;15.10;;;;;;;0.80;100.00;100476.53;5052815;28;20060;-67
2024/02/17 04:28:05;;;;;;;20.30;13.60;;;;;;;0.66;100.00;100447.00;5052878;28;20051;-70
2024/02/17 04:30:31;;;;;;;23.13;14.77;;;;;;;0.73;100.00;100467.41;5052769;28;20291;-68
2024/02/17 04:32:58;;;;;;;17.83;12.90;;;;;;;0.57;100.00;100432.72;5053861;28;20311;-67
2024/02/17 04:35:24;;;;;;;19.10;14.20;;;;;;;0.84;100.00;100475.34;5052863;28;20333;-70
2024/02/17 04:37:49;;;;;;;20.87;13.73;;;;;;;0.74;100.00;100447.28;5052793;28;20784;-70
2024/02/17 04:40:15;;;;;;;23.63;15.23;;;;;;;0.73;100.00;100446.44;5051593;28;20484;-70
2024/02/17 04:42:40;;;;;;;20.53;13.93;;;;;;;0.71;100.00;100430.00;5051580;28;20068;-68
2024/02/17 04:45:07;;;;;;;24.70;15.57;;;;;;;0.67;100.00;100419.84;5051788;28;20048;-69
2024/02/17 04:47:32;;;;;;;23.23;16.03;;;;;;;0.88;100.00;100455.03;5052582;28;20041;-68
2024/02/17 04:49:57;;;;;;;23.23;14.20;;;;;;;0.83;100.00;100417.78;5052671;28;20279;-71
2024/02/17 04:52:23;;;;;;;20.73;14.23;;;;;;;0.73;100.00;100399.28;5052528;28;20041;-69
2024/02/17 04:54:48;;;;;;;23.07;13.30;;;;;;;0.87;100.00;100432.38;5052392;28;20043;-68
2024/02/17 04:57:14;;;;;;;21.20;14.23;;;;;;;0.69;100.00;100391.72;5052456;28;20091;-68
2024/02/17 04:59:39;;;;;;;21.17;15.33;;;;;;;0.67;100.00;100383.97;5052265;28;20511;-67
2024/02/17 05:02:05;;;;;;;19.90;14.67;;;;;;;0.79;100.00;100414.56;5052074;28;20477;-68
2024/02/17 05:04:31;;;;;;;19.90;14.53;;;;;;;0.91;100.00;100418.94;5052371;28;20119;-69
2024/02/17 05:06:56;;;;;;;26.13;16.27;;;;;;;0.69;100.00;100382.09;5052500;28;20051;-69
2024/02/17 05:09:22;;;;;;;22.87;15.23;;;;;;;0.88;100.00;100421.78;5051994;28;20060;-70
2024/02/17 05:11:47;;;;;;;22.37;14.90;;;;;;;0.66;100.00;100371.81;5052079;28;20404;-67
2024/02/17 05:14:15;;;;;;;21.23;14.50;;;;;;;0.88;100.00;100397.34;5052198;28;20124;-68
2024/02/17 05:16:44;;;;;;;24.60;16.48;;;;;;;0.95;100.00;100397.75;5052000;28;20028;-70
2024/02/17 05:19:13;;;;;;;;;;;;;;;0.96;100.00;100404.66;5052278;28;20099;-68
2024/02/17 05:21:41;;;;;;;26.30;15.18;;;;;;;0.92;100.00;100397.03;5050756;28;19916;-69
2024/02/17 05:24:07;;;;;;;22.05;15.05;;;;;;;0.73;100.00;100362.56;5051906;28;20040;-69
2024/02/17 05:26:37;;;;;;;25.13;16.43;;;;;;;0.93;100.00;100388.22;5052093;28;20057;-69
2024/02/17 05:29:06;;;;;;;25.70;16.60;;;;;;;0.96;100.00;100381.06;5050509;28;20163;-69
2024/02/17 05:31:33;;;;;;;23.83;15.30;;;;;;;0.95;100.00;100382.00;5051605;28;20305;-69
2024/02/17 05:33:59;;;;;;;23.30;16.80;;;;;;;0.87;100.00;100349.31;5051374;28;20306;-68
2024/02/17 05:36:25;;;;;;;24.50;15.90;;;;;;;0.99;100.00;100357.25;5051554;28;20307;-68
2024/02/17 05:38:51;;;;;;;24.00;16.17;;;;;;;0.98;100.00;100352.94;5051488;28;20041;-68
2024/02/17 05:41:17;;;;;;;24.27;16.63;;;;;;;1.04;100.00;100360.38;5051274;28;20263;-68
2024/02/17 05:43:43;;;;;;;29.63;17.30;;;;;;;0.89;100.00;100326.47;5051432;28;20086;-67
2024/02/17 05:46:10;;;;;;;23.87;17.47;;;;;;;1.09;100.00;100337.25;5040958;28;20272;-69
2024/02/17 05:48:36;;;;;;;30.67;17.27;;;;;;;1.02;100.00;100320.31;5031099;28;20052;-71
2024/02/17 05:51:02;;;;;;;29.37;17.77;;;;;;;0.87;100.00;100286.41;5032072;28;20632;-68
2024/02/17 05:53:27;;;;;;;26.17;16.90;;;;;;;0.64;100.00;100239.22;5015144;28;20081;-69
2024/02/17 05:55:53;;;;;;;32.53;17.73;;;;;;;1.09;100.00;100303.16;5031174;28;20067;-70
2024/02/17 05:58:18;;;;;;;24.27;16.37;;;;;;;1.05;100.00;100275.50;5032956;28;20116;-69
2024/02/17 06:00:44;;;;;;;23.67;16.63;;;;;;;1.15;100.00;100281.72;5032154;28;20033;-69
2024/02/17 06:03:09;;;;;;;23.33;15.23;;;;;;;1.18;100.00;100268.41;5031663;28;21115;-69
2024/02/17 06:05:34;;;;;;;24.70;16.47;;;;;;;1.10;100.00;100262.88;5031314;28;20407;-72
2024/02/17 06:08:00;;;;;;;26.67;17.17;;;;;;;1.12;100.00;100288.03;5031425;28;20034;-70
2024/02/17 06:10:25;;;;;;;29.23;17.90;;;;;;;1.04;100.00;100268.59;5029803;28;20033;-70
2024/02/17 06:12:51;;;;;;;28.23;18.00;;;;;;;1.03;100.00;100261.66;5017993;28;20038;-72
2024/02/17 06:15:16;;;;;;;28.30;17.27;;;;;;;1.10;100.00;100263.72;5013299;28;20061;-72
2024/02/17 06:17:43;;;;;;;27.93;17.50;;;;;;;1.03;100.00;100248.56;5013233;28;20037;-69
2024/02/17 06:22:57;;;;;;;22.58;15.73;;;;;;;1.14;100.00;100245.94;5027165;28;20283;-73
2024/02/17 06:25:23;;;;;;;32.07;18.30;;;;;;;1.13;100.00;100245.13;5031906;28;20081;-72
2024/02/17 06:27:49;;;;;;;25.07;16.67;;;;;;;1.05;100.00;100226.50;5032722;28;20337;-68
2024/02/17 06:30:15;;;;;;;25.73;17.47;;;;;;;1.13;100.00;100239.88;5036112;28;20322;-71
2024/02/17 06:32:42;;;;;;;22.03;16.07;;;;;;;1.13;100.00;100241.66;5035188;28;20035;-70
2024/02/17 06:35:09;;;;;;;33.23;16.33;;;;;;;1.14;100.00;100243.34;5034807;28;20394;-69
2024/02/17 06:37:34;;;;;;;27.07;17.37;;;;;;;1.04;100.00;100234.50;5027357;28;20288;-69
2024/02/17 06:40:00;;;;;;;24.40;16.73;;;;;;;1.14;100.00;100246.78;5014685;28;20269;-70
2024/02/17 06:42:26;;;;;;;28.03;18.13;;;;;;;1.16;100.00;100238.84;5033527;28;20557;-70
2024/02/17 06:44:51;;;;;;;24.83;17.13;;;;;;;1.15;100.00;100239.75;5034256;28;20030;-71
2024/02/17 06:47:17;;;;;;;29.80;18.33;;;;;;;1.09;100.00;100234.97;5034211;28;20052;-71
2024/02/17 06:49:42;;;;;;;24.07;16.00;;;;;;;1.00;100.00;100218.16;5034274;28;20087;-71
2024/02/17 06:52:09;;;;;;;21.83;16.27;;;;;;;0.93;100.00;100196.81;5034334;28;20060;-71
2024/02/17 06:54:35;;;;;;;21.83;16.43;;;;;;;1.18;100.00;100231.69;5032641;28;20246;-70
2024/02/17 06:57:00;;;;;;;23.90;16.47;;;;;;;1.07;100.00;100219.34;5034240;28;20407;-69
2024/02/17 06:59:26;;;;;;;25.10;16.67;;;;;;;1.03;100.00;100212.69;5032802;28;20048;-73
2024/02/17 07:01:51;;;;;;;25.17;16.10;;;;;;;1.17;100.00;100230.00;5032766;28;20472;-70
2024/02/17 07:04:17;;;;;;;27.27;16.23;;;;;;;1.15;100.00;100221.41;5033685;28;20053;-68
2024/02/17 07:06:45;;;;;;;22.70;15.93;;;;;;;1.08;100.00;100220.19;5033733;28;20084;-69
2024/02/17 07:09:14;;;;;;;24.40;16.17;;;;;;;1.09;100.00;100219.25;5034113;28;20114;-72
2024/02/17 07:11:40;;;;;;;26.97;16.70;;;;;;;1.11;100.00;100225.22;5034360;28;20037;-75
2024/02/17 07:14:06;;;;;;;24.03;15.77;;;;;;;1.17;100.00;100228.22;5034524;28;20263;-75
2024/02/17 07:16:31;;;;;;;25.40;16.20;;;;;;;1.06;100.00;100206.38;5034190;28;20354;-72
2024/02/17 07:18:59;;;;;;;21.70;15.70;;;;;;;1.19;100.00;100218.44;5034653;28;20755;-73
2024/02/17 07:21:25;;;;;;;31.33;15.77;;;;;;;1.14;100.00;100215.31;5033728;28;20041;-70
2024/02/17 07:23:51;;;;;;;26.80;16.80;;;;;;;1.22;100.00;100225.25;5059968;28;20272;-71
2024/02/17 07:26:16;;;;;;;22.37;14.30;;;;;;;1.01;100.00;100184.91;5033249;28;20288;-70
2024/02/17 07:28:42;;;;;;;24.80;15.27;;;;;;;1.16;100.00;100210.00;5031966;28;20045;-71
2024/02/17 07:31:10;;;;;;;30.87;16.90;;;;;;;1.13;100.00;100205.78;5032117;28;20045;-69
2024/02/17 07:33:38;;;;;;;22.23;14.73;;;;;;;1.17;100.00;100211.66;5032975;28;20104;-69
2024/02/17 07:36:04;;;;;;;24.60;16.27;;;;;;;1.15;100.00;100198.63;5033308;28;20284;-68
2024/02/17 07:38:30;;;;;;;26.33;15.83;;;;;;;1.30;100.00;100217.63;5032245;28;20299;-70
2024/02/17 07:40:55;;;;;;;24.00;15.90;;;;;;;1.31;100.00;100210.59;5031974;28;20276;-68
2024/02/17 07:43:20;;;;;;;23.00;15.47;;;;;;;1.08;100.00;100173.00;5032746;28;20481;-69
2024/02/17 07:45:48;;;;;;;23.23;15.77;;;;;;;0.96;100.00;100147.72;5017459;28;20410;-70
2024/02/17 07:48:15;;;;;;;26.77;15.90;;;;;;;1.29;100.00;100213.34;5030896;28;20073;-69
2024/02/17 07:50:41;;;;;;;26.57;15.93;;;;;;;1.27;100.00;100207.38;5033055;28;20712;-70
2024/02/17 07:53:06;;;;;;;22.60;16.47;;;;;;;1.27;100.00;100204.75;5033234;28;20284;-69
2024/02/17 07:55:32;;;;;;;25.60;15.23;;;;;;;1.31;100.00;100206.19;5032899;28;20037;-72
2024/02/17 07:57:57;;;;;;;22.13;15.27;;;;;;;1.36;100.00;100204.03;5032757;28;20047;-68
2024/02/17 08:00:23;;;;;;;20.43;14.67;;;;;;;1.26;100.00;100176.84;5031676;28;20124;-68
2024/02/17 08:02:51;;;;;;;22.30;14.50;;;;;;;1.39;100.00;100193.31;5032675;28;20140;-69
2024/02/17 08:05:17;;;;;;;20.83;14.90;;;;;;;1.35;100.00;100186.63;5033370;28;20084;-70
2024/02/17 08:07:43;;;;;;;22.20;15.00;;;;;;;1.29;100.00;100166.13;5032244;28;20288;-66
2024/02/17 08:10:11;;;;;;;21.10;13.77;;;;;;;1.20;100.00;100140.59;5031390;28;20299;-68
2024/02/17 08:12:37;;;;;;;20.97;14.90;;;;;;;1.20;100.00;100136.19;5032476;28;20268;-71
2024/02/17 08:15:04;;;;;;;21.23;13.70;;;;;;;1.40;100.00;100157.41;5032439;28;20295;-70
2024/02/17 08:17:30;;;;;;;23.67;14.43;;;;;;;1.14;100.00;100110.41;5030466;28;20326;-72
2024/02/17 08:19:55;;;;;;;20.30;13.13;;;;;;;1.11;100.00;100094.06;5031159;28;20268;-72
2024/02/17 08:22:21;;;;;;;20.10;13.30;;;;;;;1.25;100.00;100106.97;5032540;28;20044;-72
2024/02/17 08:24:46;;;;;;;19.27;13.27;;;;;;;1.30;100.00;100125.81;5032778;28;20049;-71
2024/02/17 08:27:13;;;;;;;19.50;13.63;;;;;;;1.15;100.00;100075.34;5033141;28;20060;-70
2024/02/17 08:29:39;;;;;;;17.57;12.87;;;;;;;1.29;100.00;100105.78;5032157;28;20512;-72
2024/02/17 08:32:05;;;;;;;20.27;13.90;;;;;;;1.17;100.00;100081.34;5032348;28;20300;-71
2024/02/17 08:34:31;;;;;;;16.30;12.50;;;;;;;1.38;100.00;100112.91;5029842;28;20363;-71
2024/02/17 08:36:56;;;;;;;16.90;12.63;;;;;;;1.47;100.00;100119.25;5030731;28;20355;-69
2024/02/17 08:39:22;;;;;;;17.77;13.17;;;;;;;1.53;100.00;100111.75;5032483;28;20045;-69
2024/02/17 08:41:47;;;;;;;17.73;12.80;;;;;;;1.32;100.00;100076.69;5031632;28;20120;-69
2024/02/17 08:44:13;;;;;;;15.27;11.50;;;;;;;1.57;100.00;100091.34;5031379;28;20044;-71
2024/02/17 08:46:38;;;;;;;19.63;12.77;;;;;;;1.53;100.00;100096.00;5032280;28;20041;-70
2024/02/17 08:49:04;;;;;;;15.57;11.10;;;;;;;1.50;100.00;100091.00;5014211;28;20041;-72
2024/02/17 08:51:29;;;;;;;16.80;11.87;;;;;;;1.65;100.00;100093.34;5031532;28;20041;-69
2024/02/17 08:53:55;;;;;;;13.37;10.03;;;;;;;1.54;100.00;100081.91;5031832;28;20452;-69
2024/02/17 08:56:21;;;;;;;17.03;11.33;;;;;;;1.46;100.00;100047.59;5030386;28;20120;-68
2024/02/17 08:58:47;;;;;;;14.13;10.20;;;;;;;1.60;100.00;100072.72;5032331;28;20030;-70
2024/02/17 09:01:12;;;;;;;14.53;10.67;;;;;;;1.67;100.00;100071.25;5031983;28;20264;-70
2024/02/17 09:03:38;;;;;;;14.53;10.73;;;;;;;1.43;100.00;100034.69;5031817;28;20045;-70
2024/02/17 09:06:04;;;;;;;15.07;9.83;;;;;;;1.70;100.00;100081.50;5031428;28;20069;-69
2024/02/17 09:08:29;;;;;;;15.10;10.67;;;;;;;1.65;100.00;100053.97;5029891;28;20130;-68
2024/02/17 09:10:54;;;;;;;15.10;10.63;;;;;;;1.15;100.00;99959.13;5031579;28;20495;-68
2024/02/17 09:13:20;;;;;;;18.30;10.53;;;;;;;1.90;100.00;100082.56;5030106;28;20045;-69
2024/02/17 09:15:48;;;;;;;12.13;8.87;;;;;;;1.81;100.00;100067.53;5031519;28;20041;-69
2024/02/17 09:18:13;;;;;;;14.57;8.80;;;;;;;1.94;100.00;100083.97;5029916;28;20029;-70
2024/02/17 09:20:39;;;;;;;12.77;8.83;;;;;;;1.83;100.00;100068.25;5031066;28;20264;-69
2024/02/17 09:23:05;;;;;;;16.17;10.30;;;;;;;1.85;100.00;100058.47;5029663;28;20044;-69
2024/02/17 09:25:35;;;;;;;12.47;9.30;;;;;;;2.01;100.00;100074.63;5031139;28;20184;-70
2024/02/17 09:28:01;;;;;;;10.87;8.57;;;;;;;1.17;100.00;99958.09;5030925;28;20414;-71
2024/02/17 09:30:26;;;;;;;10.47;7.90;;;;;;;2.04;100.00;100081.44;5031307;28;20268;-70
2024/02/17 09:32:53;;;;;;;14.27;8.57;;;;;;;1.82;100.00;100056.09;5030702;28;20045;-70
2024/02/17 09:35:19;;;;;;;10.73;8.67;;;;;;;2.04;100.00;100084.91;5031008;28;20288;-70
2024/02/17 09:37:44;;;;;;;15.50;8.60;;;;;;;1.93;100.00;100056.03;5030646;28;20079;-71
2024/02/17 09:40:11;;;;;;;12.50;8.80;;;;;;;2.08;100.00;100074.97;5029788;28;20049;-72
2024/02/17 09:42:37;;;;;;;13.43;7.63;;;;;;;1.86;100.00;100026.81;5030921;28;20072;-70
2024/02/17 09:45:04;;;;;;;13.03;8.50;;;;;;;2.02;100.00;100050.03;5030978;28;20288;-69
2024/02/17 09:47:33;;;;;;;8.00;7.17;;;;;;;2.11;100.00;100080.81;5031951;28;20481;-70
2024/02/17 09:49:59;;;;;;;9.33;7.87;;;;;;;2.12;100.00;100053.59;5032348;28;20298;-70
2024/02/17 09:52:26;;;;;;;10.27;7.33;;;;;;;2.11;100.00;100051.91;5032334;28;20260;-71
2024/02/17 09:54:54;;;;;;;10.23;6.93;;;;;;;1.86;100.00;100016.31;5031701;28;20034;-70
2024/02/17 09:57:19;;;;;;;10.00;8.03;;;;;;;1.84;100.00;99994.63;5031495;28;20264;-70
2024/02/17 09:59:45;;;;;;;10.87;7.30;;;;;;;2.08;100.00;100054.81;5031385;28;20310;-71
2024/02/17 10:02:13;;;;;;;9.02;6.95;;;;;;;2.12;100.00;100055.38;5029663;28;20040;-68
2024/02/17 10:04:53;;;;;;;12.43;7.67;;;;;;;2.10;100.00;100052.88;5030979;28;20033;-71
2024/02/17 10:07:19;;;;;;;11.87;7.47;;;;;;;2.10;100.00;100050.25;5031083;28;20084;-70
2024/02/17 10:09:46;;;;;;;11.10;7.27;;;;;;;2.13;100.00;100036.88;5031047;28;20292;-69
2024/02/17 10:12:13;;;;;;;15.47;9.57;;;;;;;2.15;100.00;100055.97;5031177;28;20033;-68
2024/02/17 10:14:39;;;;;;;12.17;7.73;;;;;;;2.26;100.00;100062.94;5031249;28;20291;-70
2024/02/17 10:17:07;;;;;;;10.53;7.53;;;;;;;2.25;100.00;100069.16;5030668;28;20268;-69
2024/02/17 10:19:33;;;;;;;9.55;7.78;;;;;;;2.13;100.00;100050.00;5029523;28;20275;-71
2024/02/17 10:21:59;;;;;;;11.53;7.43;;;;;;;2.20;100.00;100046.88;5031081;28;20038;-68
2024/02/17 10:24:30;;;;;;;11.53;7.77;;;;;;;2.34;100.00;100064.97;5030938;28;20037;-69
2024/02/17 10:26:57;;;;;;;6.87;6.07;;;;;;;2.27;100.00;100051.47;5030920;28;20052;-70
2024/02/17 10:29:23;;;;;;;9.87;7.10;;;;;;;2.36;100.00;100065.66;5030793;28;20334;-70
2024/02/17 10:31:49;;;;;;;9.63;6.87;;;;;;;2.26;100.00;100020.06;5030375;28;20659;-69
2024/02/17 10:34:15;;;;;;;7.67;6.60;;;;;;;2.44;100.00;100068.47;5030530;28;20275;-70
2024/02/17 10:36:42;;;;;;;8.47;7.20;;;;;;;2.46;100.00;100063.94;5029415;28;20068;-69
2024/02/17 10:39:08;;;;;;;9.73;7.70;;;;;;;2.46;100.00;100058.69;5030682;28;20268;-70
2024/02/17 10:41:35;;;;;;;8.73;6.87;;;;;;;2.46;100.00;100058.69;5028509;28;20299;-69
2024/02/17 10:44:01;;;;;;;8.07;6.77;;;;;;;2.46;100.00;100054.25;5030487;28;20354;-71
2024/02/17 10:46:28;;;;;;;8.87;7.00;;;;;;;2.53;100.00;100077.38;5030411;28;20363;-70
2024/02/17 10:49:01;;;;;;;8.80;7.43;;;;;;;2.50;100.00;100070.59;5030494;28;20799;-68
2024/02/17 10:51:28;;;;;;;10.93;7.87;;;;;;;2.35;100.00;100038.56;5029528;28;20264;-70
2024/02/17 10:54:07;;;;;;;11.27;7.23;;;;;;;2.52;100.00;100068.66;5030616;28;20289;-70
2024/02/17 10:56:34;;;;;;;11.60;8.67;;;;;;;2.47;100.00;100055.91;5031181;28;20664;-70
2024/02/17 10:59:03;;;;;;;12.10;7.60;;;;;;;2.08;100.00;100001.44;5030494;28;20275;-70
2024/02/17 11:01:30;;;;;;;10.80;7.07;;;;;;;2.52;100.00;100063.41;5031501;28;20319;-72
2024/02/17 11:03:58;;;;;;;8.53;7.20;;;;;;;2.61;100.00;100088.13;5013715;28;20037;-69
2024/02/17 11:06:25;;;;;;;12.70;8.10;;;;;;;2.54;100.00;100077.25;5029379;28;20818;-71
2024/02/17 11:08:51;;;;;;;9.93;7.00;;;;;;;2.55;100.00;100078.94;5030559;28;20379;-72
2024/02/17 11:11:23;;;;;;;9.57;7.10;;;;;;;2.61;100.00;100083.69;5030502;28;20271;-72